createdAt,value
2019-04-28T00:02:10.904Z,25.17
2019-04-28T00:04:38.384Z,23.07
2019-04-28T00:07:05.897Z,23.37
2019-04-28T00:09:33.486Z,22.00
2019-04-28T00:12:02.433Z,23.23
2019-04-28T00:14:31.573Z,21.30
2019-04-28T00:17:01.551Z,24.67
2019-04-28T00:19:30.956Z,22.80
2019-04-28T00:22:05.462Z,24.87
2019-04-28T00:24:42.384Z,21.50
2019-04-28T00:27:12.290Z,24.00
2019-04-28T00:29:43.543Z,22.40
2019-04-28T00:32:11.237Z,21.30
2019-04-28T00:34:41.040Z,21.80
2019-04-28T00:37:27.907Z,21.27
2019-04-28T00:39:56.520Z,22.37
2019-04-28T00:42:24.234Z,21.47
2019-04-28T00:44:51.877Z,20.40
2019-04-28T00:47:22.587Z,22.93
2019-04-28T00:49:51.949Z,23.70
2019-04-28T00:52:22.221Z,26.23
2019-04-28T00:54:52.316Z,27.10
2019-04-28T00:57:21.175Z,23.10
2019-04-28T00:59:56.675Z,23.73
2019-04-28T01:02:35.204Z,21.43
2019-04-28T01:05:04.746Z,20.60
2019-04-28T01:07:33.212Z,21.27
2019-04-28T01:10:01.440Z,21.63
2019-04-28T01:12:31.111Z,21.43
2019-04-28T01:15:00.247Z,19.97
2019-04-28T01:18:05.772Z,21.00
2019-04-28T01:20:33.397Z,19.10
2019-04-28T01:23:01.002Z,19.33
2019-04-28T01:25:29.868Z,18.57
2019-04-28T01:27:58.051Z,19.27
2019-04-28T01:30:44.833Z,18.53
2019-04-28T01:33:51.846Z,19.27
2019-04-28T01:36:20.274Z,19.87
2019-04-28T01:38:47.858Z,18.70
2019-04-28T01:41:15.457Z,18.90
2019-04-28T01:43:43.057Z,21.47
2019-04-28T01:46:10.570Z,18.23
2019-04-28T01:48:39.793Z,18.30
2019-04-28T01:51:09.431Z,18.60
2019-04-28T01:53:36.970Z,19.90
2019-04-28T01:56:04.648Z,20.53
2019-04-28T01:58:32.151Z,20.67
2019-04-28T02:00:59.852Z,21.57
2019-04-28T02:03:27.480Z,17.53
2019-04-28T02:05:55.862Z,17.80
2019-04-28T02:08:23.528Z,19.27
2019-04-28T02:10:51.176Z,17.73
2019-04-28T02:13:19.848Z,18.60
2019-04-28T02:15:47.558Z,17.10
2019-04-28T02:18:15.144Z,17.83
2019-04-28T02:20:44.744Z,19.70
2019-04-28T02:23:19.759Z,18.63
2019-04-28T02:25:47.470Z,21.07
2019-04-28T02:28:15.114Z,19.10
2019-04-28T02:30:49.403Z,18.07
2019-04-28T02:33:12.265Z,16.00
2019-04-28T02:35:41.825Z,16.83
2019-04-28T02:38:11.482Z,17.63
2019-04-28T02:40:40.596Z,16.57
2019-04-28T02:43:11.249Z,17.83
2019-04-28T02:45:41.296Z,16.40
2019-04-28T02:48:12.573Z,16.47
2019-04-28T02:50:51.194Z,16.17
2019-04-28T02:53:24.974Z,16.43
2019-04-28T02:55:52.666Z,18.90
2019-04-28T02:58:22.414Z,14.93
2019-04-28T03:01:04.746Z,15.40
2019-04-28T03:03:21.153Z,16.80
2019-04-28T03:05:51.296Z,16.23
2019-04-28T03:08:21.162Z,17.17
2019-04-28T03:10:47.527Z,17.10
2019-04-28T03:13:15.169Z,18.43
2019-04-28T03:15:43.022Z,16.67
2019-04-28T03:18:11.541Z,17.67
2019-04-28T03:20:41.488Z,17.10
2019-04-28T03:23:09.895Z,19.17
2019-04-28T03:25:57.638Z,19.80
2019-04-28T03:28:47.522Z,16.90
2019-04-28T03:32:07.194Z,19.03
2019-04-28T03:34:07.495Z,18.23
2019-04-28T03:36:35.219Z,18.13
2019-04-28T03:39:05.884Z,17.47
2019-04-28T03:41:33.703Z,17.90
2019-04-28T03:44:01.714Z,15.70
2019-04-28T03:46:31.107Z,16.60
2019-04-28T03:49:00.715Z,17.73
2019-04-28T03:51:30.707Z,17.70
2019-04-28T03:54:00.627Z,15.70
2019-04-28T03:56:27.665Z,18.83
2019-04-28T03:58:55.337Z,17.73
2019-04-28T04:01:22.865Z,16.97
2019-04-28T04:03:51.606Z,16.60
2019-04-28T04:06:19.497Z,16.40
2019-04-28T04:08:47.185Z,17.67
2019-04-28T04:11:34.302Z,15.27
2019-04-28T04:14:11.471Z,15.63
2019-04-28T04:16:56.881Z,17.10
2019-04-28T04:19:24.501Z,13.03
2019-04-28T04:21:52.745Z,15.20
2019-04-28T04:24:22.917Z,12.80
2019-04-28T04:26:50.774Z,12.57
2019-04-28T04:29:18.408Z,12.37
2019-04-28T04:31:46.649Z,14.17
2019-04-28T04:34:14.395Z,12.90
2019-04-28T04:36:42.087Z,12.03
2019-04-28T04:39:10.813Z,12.50
2019-04-28T04:41:42.959Z,12.03
2019-04-28T04:44:10.911Z,12.80
2019-04-28T04:46:37.517Z,11.40
2019-04-28T04:49:05.468Z,11.73
2019-04-28T04:51:34.320Z,11.23
2019-04-28T04:54:01.882Z,11.00
2019-04-28T04:56:30.173Z,10.80
2019-04-28T04:59:02.275Z,11.17
2019-04-28T05:01:53.722Z,10.60
2019-04-28T05:04:43.578Z,11.47
2019-04-28T05:07:11.246Z,11.23
2019-04-28T05:09:39.504Z,10.40
2019-04-28T05:12:07.143Z,10.70
2019-04-28T05:14:34.873Z,9.67
2019-04-28T05:17:02.914Z,13.07
2019-04-28T05:19:30.578Z,10.80
2019-04-28T05:21:59.878Z,12.00
2019-04-28T05:24:36.712Z,9.93
2019-04-28T05:27:04.829Z,11.87
2019-04-28T05:29:32.494Z,11.83
2019-04-28T05:32:03.257Z,12.23
2019-04-28T05:34:29.816Z,12.73
2019-04-28T05:36:57.399Z,12.13
2019-04-28T05:39:25.076Z,9.97
2019-04-28T05:41:52.697Z,11.10
2019-04-28T05:44:20.433Z,10.60
2019-04-28T05:46:48.028Z,9.93
2019-04-28T05:49:29.727Z,8.83
2019-04-28T05:52:01.475Z,9.13
2019-04-28T05:54:40.424Z,11.03
2019-04-28T05:57:20.662Z,8.77
2019-04-28T05:59:56.735Z,9.37
2019-04-28T06:02:30.550Z,8.53
2019-04-28T06:04:59.808Z,11.20
2019-04-28T06:07:33.480Z,9.80
2019-04-28T06:10:02.024Z,8.30
2019-04-28T06:12:30.250Z,8.93
2019-04-28T06:15:00.148Z,8.23
2019-04-28T06:17:29.515Z,7.87
2019-04-28T06:19:57.117Z,7.30
2019-04-28T06:22:26.443Z,11.17
2019-04-28T06:24:54.145Z,7.93
2019-04-28T06:27:21.785Z,8.10
2019-04-28T06:29:49.575Z,7.93
2019-04-28T06:32:17.275Z,8.57
2019-04-28T06:34:45.079Z,7.60
2019-04-28T06:37:13.756Z,11.20
2019-04-28T06:39:41.586Z,8.60
2019-04-28T06:42:11.510Z,6.27
2019-04-28T06:44:39.127Z,8.13
2019-04-28T06:47:06.772Z,7.57
2019-04-28T06:49:34.532Z,9.37
2019-04-28T06:52:02.245Z,7.40
2019-04-28T06:54:29.968Z,6.33
2019-04-28T06:56:57.565Z,7.43
2019-04-28T06:59:26.201Z,6.27
2019-04-28T07:01:53.870Z,8.20
2019-04-28T07:04:21.587Z,9.00
2019-04-28T07:06:49.233Z,7.80
2019-04-28T07:09:16.859Z,8.00
2019-04-28T07:11:44.469Z,6.30
2019-04-28T07:14:12.107Z,6.17
2019-04-28T07:16:39.765Z,8.23
2019-04-28T07:19:07.405Z,6.93
2019-04-28T07:21:40.053Z,7.87
2019-04-28T07:24:07.606Z,9.60
2019-04-28T07:26:35.141Z,7.70
2019-04-28T07:29:05.869Z,8.07
2019-04-28T07:31:33.502Z,14.07
2019-04-28T07:34:03.021Z,8.57
2019-04-28T07:36:30.735Z,10.00
2019-04-28T07:38:58.479Z,9.07
2019-04-28T07:41:25.997Z,7.60
2019-04-28T07:43:53.755Z,9.23
2019-04-28T07:46:21.303Z,9.80
2019-04-28T07:48:52.424Z,13.83
2019-04-28T07:51:21.638Z,13.47
2019-04-28T07:53:53.462Z,9.63
2019-04-28T07:56:21.127Z,10.77
2019-04-28T07:58:48.797Z,9.70
2019-04-28T08:01:16.450Z,10.70
2019-04-28T08:03:49.791Z,9.20
2019-04-28T08:06:15.821Z,10.17
2019-04-28T08:08:43.349Z,10.77
2019-04-28T08:11:11.266Z,11.40
2019-04-28T08:13:38.964Z,10.97
2019-04-28T08:16:06.737Z,11.97
2019-04-28T08:18:34.482Z,9.37
2019-04-28T08:21:02.190Z,10.80
2019-04-28T08:23:29.804Z,10.50
2019-04-28T08:25:57.540Z,11.00
2019-04-28T08:28:25.354Z,11.37
2019-04-28T08:30:53.624Z,11.20
2019-04-28T08:33:43.622Z,13.50
2019-04-28T08:36:11.243Z,10.83
2019-04-28T08:38:38.798Z,13.93
2019-04-28T08:41:08.358Z,14.97
2019-04-28T08:43:36.000Z,16.90
2019-04-28T08:46:03.546Z,16.73
2019-04-28T08:48:31.249Z,22.43
2019-04-28T08:50:58.950Z,23.67
2019-04-28T08:53:26.727Z,27.73
2019-04-28T08:55:54.320Z,25.67
2019-04-28T08:58:21.884Z,26.27
2019-04-28T09:00:49.652Z,25.53
2019-04-28T09:03:17.208Z,29.97
2019-04-28T09:05:44.902Z,31.80
2019-04-28T09:08:12.536Z,28.17
2019-04-28T09:10:40.175Z,26.63
2019-04-28T09:13:07.800Z,27.90
2019-04-28T09:15:35.600Z,27.10
2019-04-28T09:18:03.808Z,25.93
2019-04-28T09:20:31.444Z,27.67
2019-04-28T09:22:59.416Z,33.03
2019-04-28T09:25:26.966Z,29.13
2019-04-28T09:27:54.558Z,31.40
2019-04-28T09:30:22.235Z,32.23
2019-04-28T09:32:50.151Z,27.63
2019-04-28T09:35:18.008Z,24.80
2019-04-28T09:37:45.697Z,29.73
2019-04-28T09:40:14.585Z,31.23
2019-04-28T09:42:51.684Z,29.87
2019-04-28T09:45:24.621Z,27.47
2019-04-28T09:47:52.238Z,30.43
2019-04-28T09:50:19.869Z,29.93
2019-04-28T09:52:48.870Z,28.20
2019-04-28T09:55:16.624Z,26.33
2019-04-28T09:57:44.262Z,24.83
2019-04-28T10:00:12.595Z,27.00
2019-04-28T10:02:40.144Z,17.77
2019-04-28T10:05:08.817Z,14.97
2019-04-28T10:07:36.550Z,13.87
2019-04-28T10:10:07.150Z,15.13
2019-04-28T10:12:34.673Z,13.97
2019-04-28T10:15:02.326Z,13.20
2019-04-28T10:17:30.196Z,16.67
2019-04-28T10:19:57.885Z,12.07
2019-04-28T10:22:25.654Z,12.20
2019-04-28T10:24:53.305Z,11.23
2019-04-28T10:27:20.930Z,12.60
2019-04-28T10:29:48.642Z,12.10
2019-04-28T10:32:16.192Z,12.27
2019-04-28T10:34:54.335Z,13.67
2019-04-28T10:37:13.473Z,12.87
2019-04-28T10:39:47.674Z,15.40
2019-04-28T10:42:15.241Z,16.23
2019-04-28T10:44:45.277Z,12.80
2019-04-28T10:47:13.746Z,11.83
2019-04-28T10:49:41.516Z,10.57
2019-04-28T10:52:09.247Z,11.30
2019-04-28T10:54:36.925Z,9.93
2019-04-28T10:57:04.626Z,10.07
2019-04-28T10:59:32.348Z,9.70
2019-04-28T11:02:00.007Z,10.30
2019-04-28T11:04:50.503Z,9.47
2019-04-28T11:07:19.038Z,9.67
2019-04-28T11:09:55.065Z,9.20
2019-04-28T11:12:25.194Z,11.23
2019-04-28T11:14:52.933Z,8.13
2019-04-28T11:17:21.533Z,9.00
2019-04-28T11:19:49.273Z,8.53
2019-04-28T11:22:16.962Z,8.97
2019-04-28T11:24:44.645Z,8.97
2019-04-28T11:27:12.328Z,10.17
2019-04-28T11:29:40.019Z,9.40
2019-04-28T11:32:07.895Z,9.13
2019-04-28T11:34:47.943Z,8.67
2019-04-28T11:37:24.254Z,9.13
2019-04-28T11:39:51.965Z,9.80
2019-04-28T11:42:19.879Z,11.17
2019-04-28T11:44:47.935Z,9.40
2019-04-28T11:47:17.425Z,9.10
2019-04-28T11:49:45.230Z,11.33
2019-04-28T11:52:13.078Z,10.20
2019-04-28T11:54:40.722Z,9.93
2019-04-28T11:57:10.961Z,11.03
2019-04-28T11:59:38.626Z,11.20
2019-04-28T12:02:07.237Z,9.70
2019-04-28T12:04:35.086Z,10.20
2019-04-28T12:07:02.949Z,9.77
2019-04-28T12:10:03.759Z,10.60
2019-04-28T12:12:38.180Z,10.57
2019-04-28T12:15:22.436Z,10.63
2019-04-28T12:18:27.655Z,8.90
2019-04-28T12:20:55.433Z,9.20
2019-04-28T12:23:23.161Z,8.93
2019-04-28T12:25:50.800Z,8.40
2019-04-28T12:28:18.435Z,8.00
2019-04-28T12:30:46.118Z,8.53
2019-04-28T12:33:14.074Z,8.13
2019-04-28T12:35:48.169Z,8.47
2019-04-28T12:38:12.490Z,6.87
2019-04-28T12:40:40.211Z,7.37
2019-04-28T12:43:07.832Z,8.30
2019-04-28T12:45:35.692Z,7.73
2019-04-28T12:48:03.480Z,8.47
2019-04-28T12:50:36.702Z,9.03
2019-04-28T12:53:04.422Z,10.10
2019-04-28T12:55:32.063Z,12.77
2019-04-28T12:57:59.713Z,9.33
2019-04-28T13:01:04.648Z,9.43
2019-04-28T13:03:52.432Z,11.50
2019-04-28T13:06:20.115Z,10.80
2019-04-28T13:08:47.840Z,9.60
2019-04-28T13:11:15.748Z,8.80
2019-04-28T13:13:43.430Z,8.77
2019-04-28T13:16:11.210Z,8.83
2019-04-28T13:18:39.071Z,8.37
2019-04-28T13:21:06.745Z,9.20
2019-04-28T13:23:34.438Z,9.97
2019-04-28T13:26:02.297Z,10.70
2019-04-28T13:28:29.945Z,10.10
2019-04-28T13:30:57.575Z,11.90
2019-04-28T13:33:25.240Z,12.97
2019-04-28T13:35:53.056Z,13.40
2019-04-28T13:38:20.729Z,16.97
2019-04-28T13:40:48.435Z,13.63
2019-04-28T13:43:16.146Z,13.37
2019-04-28T13:45:43.747Z,13.80
2019-04-28T13:48:11.727Z,15.53
2019-04-28T13:50:39.427Z,13.73
2019-04-28T13:53:08.609Z,13.43
2019-04-28T13:56:04.656Z,13.20
2019-04-28T13:58:59.166Z,13.53
2019-04-28T14:01:49.423Z,13.80
2019-04-28T14:04:29.412Z,13.67
2019-04-28T14:07:01.839Z,13.07
2019-04-28T14:09:29.425Z,12.87
2019-04-28T14:11:57.304Z,12.27
2019-04-28T14:14:24.971Z,12.77
2019-04-28T14:16:52.686Z,12.90
2019-04-28T14:19:20.477Z,12.77
2019-04-28T14:21:48.144Z,13.03
2019-04-28T14:24:16.037Z,15.60
2019-04-28T14:26:43.913Z,13.60
2019-04-28T14:29:11.570Z,13.50
2019-04-28T14:31:39.424Z,12.20
2019-04-28T14:34:07.248Z,11.70
2019-04-28T14:36:41.855Z,11.80
2019-04-28T14:39:06.994Z,11.47
2019-04-28T14:41:34.833Z,12.10
2019-04-28T14:44:02.617Z,14.07
2019-04-28T14:46:30.295Z,12.40
2019-04-28T14:48:58.041Z,12.57
2019-04-28T14:51:25.922Z,11.83
2019-04-28T14:53:53.662Z,12.73
2019-04-28T14:56:21.444Z,12.13
2019-04-28T14:58:49.083Z,13.03
2019-04-28T15:01:28.885Z,13.03
2019-04-28T15:03:58.713Z,12.37
2019-04-28T15:06:34.599Z,13.50
2019-04-28T15:09:21.824Z,15.13
2019-04-28T15:11:53.790Z,14.70
2019-04-28T15:14:21.661Z,15.97
2019-04-28T15:16:49.931Z,15.60
2019-04-28T15:19:17.639Z,16.53
2019-04-28T15:21:48.177Z,17.40
2019-04-28T15:24:15.833Z,16.33
2019-04-28T15:26:43.626Z,17.13
2019-04-28T15:29:11.240Z,17.37
2019-04-28T15:31:38.859Z,17.57
2019-04-28T15:34:06.584Z,17.23
2019-04-28T15:36:34.210Z,48.00
2019-04-28T15:39:01.881Z,32.67
2019-04-28T15:41:30.338Z,20.17
2019-04-28T15:43:58.627Z,38.97
2019-04-28T15:46:26.248Z,46.30
2019-04-28T15:48:54.012Z,32.70
2019-04-28T15:51:21.667Z,19.77
2019-04-28T15:53:49.429Z,16.10
2019-04-28T15:56:26.071Z,13.77
2019-04-28T15:58:56.792Z,13.03
2019-04-28T16:01:24.639Z,12.13
2019-04-28T16:03:52.397Z,14.90
2019-04-28T16:06:20.145Z,20.87
2019-04-28T16:08:47.801Z,21.47
2019-04-28T16:11:15.941Z,28.73
2019-04-28T16:13:43.591Z,31.40
2019-04-28T16:16:11.380Z,23.63
2019-04-28T16:18:39.557Z,21.87
2019-04-28T16:21:07.385Z,19.80
2019-04-28T16:23:35.220Z,36.27
2019-04-28T16:26:02.932Z,30.00
2019-04-28T16:28:31.373Z,31.87
2019-04-28T16:30:59.180Z,33.70
2019-04-28T16:33:29.635Z,29.43
2019-04-28T16:35:57.410Z,25.70
2019-04-28T16:38:25.049Z,37.07
2019-04-28T16:40:52.795Z,30.97
2019-04-28T16:43:25.705Z,33.60
2019-04-28T16:45:53.498Z,47.33
2019-04-28T16:48:21.343Z,50.57
2019-04-28T16:50:49.002Z,46.37
2019-04-28T16:53:16.743Z,43.73
2019-04-28T16:56:12.493Z,44.77
2019-04-28T16:58:57.767Z,30.77
2019-04-28T17:01:50.726Z,41.10
2019-04-28T17:04:18.642Z,40.57
2019-04-28T17:06:46.412Z,38.33
2019-04-28T17:09:17.953Z,29.77
2019-04-28T17:11:45.614Z,34.00
2019-04-28T17:14:13.447Z,30.03
2019-04-28T17:16:41.186Z,25.63
2019-04-28T17:19:08.860Z,31.30
2019-04-28T17:21:36.657Z,28.43
2019-04-28T17:24:04.590Z,30.67
2019-04-28T17:26:32.341Z,39.57
2019-04-28T17:29:00.040Z,43.23
2019-04-28T17:31:27.834Z,44.97
2019-04-28T17:33:55.567Z,43.63
2019-04-28T17:36:23.197Z,39.27
2019-04-28T17:38:50.903Z,44.90
2019-04-28T17:41:18.730Z,42.07
2019-04-28T17:43:46.406Z,47.43
2019-04-28T17:46:15.622Z,43.70
2019-04-28T17:48:49.390Z,31.67
2019-04-28T17:51:17.483Z,25.97
2019-04-28T17:53:45.145Z,25.77
2019-04-28T17:56:13.425Z,23.63
2019-04-28T17:58:41.215Z,21.70
2019-04-28T18:01:26.629Z,23.53
2019-04-28T18:04:19.550Z,25.80
2019-04-28T18:06:51.800Z,25.67
2019-04-28T18:09:19.797Z,27.87
2019-04-28T18:11:47.445Z,21.67
2019-04-28T18:14:15.094Z,23.97
2019-04-28T18:17:00.651Z,38.47
2019-04-28T18:19:28.357Z,37.23
2019-04-28T18:21:56.483Z,42.30
2019-04-28T18:24:24.655Z,39.90
2019-04-28T18:26:52.530Z,39.57
2019-04-28T18:29:22.499Z,44.67
2019-04-28T18:31:59.299Z,40.83
2019-04-28T18:35:01.287Z,50.80
2019-04-28T18:37:51.153Z,51.90
2019-04-28T18:40:29.234Z,59.60
2019-04-28T18:43:19.058Z,65.23
2019-04-28T18:45:47.777Z,76.63
2019-04-28T18:48:15.778Z,69.07
2019-04-28T18:50:43.470Z,67.33
2019-04-28T18:53:11.550Z,70.00
2019-04-28T18:55:39.183Z,75.20
2019-04-28T18:58:06.830Z,69.13
2019-04-28T19:00:37.439Z,71.47
2019-04-28T19:03:05.027Z,76.13
2019-04-28T19:05:35.156Z,81.80
2019-04-28T19:08:16.602Z,79.17
2019-04-28T19:11:13.629Z,74.50
2019-04-28T19:13:48.272Z,81.93
2019-04-28T19:16:53.442Z,86.10
2019-04-28T19:19:21.967Z,74.93
2019-04-28T19:21:56.537Z,76.00
2019-04-28T19:24:24.479Z,73.67
2019-04-28T19:26:52.318Z,82.33
2019-04-28T19:29:20.127Z,76.07
2019-04-28T19:31:48.402Z,73.33
2019-04-28T19:34:16.401Z,74.50
2019-04-28T19:36:45.304Z,73.97
2019-04-28T19:41:50.798Z,88.70
2019-04-28T19:44:18.735Z,87.07
2019-04-28T19:46:46.783Z,87.83
2019-04-28T19:49:17.535Z,90.23
2019-04-28T19:51:45.225Z,102.30
2019-04-28T19:54:13.424Z,91.17
2019-04-28T19:56:49.382Z,82.93
2019-04-28T19:59:27.450Z,78.83
2019-04-28T20:01:55.434Z,78.87
2019-04-28T20:04:36.820Z,56.70
2019-04-28T20:07:15.707Z,52.53
2019-04-28T20:09:43.470Z,51.63
2019-04-28T20:12:11.925Z,47.83
2019-04-28T20:14:39.662Z,45.17
2019-04-28T20:17:07.453Z,43.70
2019-04-28T20:19:35.703Z,36.77
2019-04-28T20:22:04.598Z,40.37
2019-04-28T20:24:32.268Z,45.47
2019-04-28T20:27:00.500Z,38.93
2019-04-28T20:29:30.330Z,40.77
2019-04-28T20:31:58.004Z,39.67
2019-04-28T20:34:26.268Z,51.70
2019-04-28T20:37:19.364Z,51.77
2019-04-28T20:39:50.809Z,50.70
2019-04-28T20:42:40.376Z,51.27
2019-04-28T20:45:09.778Z,56.50
2019-04-28T20:47:37.756Z,66.33
2019-04-28T20:50:07.040Z,61.33
2019-04-28T20:52:35.388Z,64.57
2019-04-28T20:55:03.075Z,69.43
2019-04-28T20:57:31.174Z,61.47
2019-04-28T20:59:59.938Z,57.40
2019-04-28T21:02:28.551Z,58.60
2019-04-28T21:04:56.304Z,63.90
2019-04-28T21:07:23.981Z,70.23
2019-04-28T21:09:51.788Z,69.23
2019-04-28T21:12:23.943Z,74.73
2019-04-28T21:14:51.978Z,76.97
2019-04-28T21:17:19.654Z,75.67
2019-04-28T21:19:47.234Z,81.67
2019-04-28T21:22:14.956Z,80.77
2019-04-28T21:24:42.929Z,75.53
2019-04-28T21:27:10.693Z,83.00
2019-04-28T21:29:38.463Z,85.93
2019-04-28T21:32:06.276Z,88.80
2019-04-28T21:34:34.085Z,77.57
2019-04-28T21:37:01.725Z,86.23
2019-04-28T21:39:29.430Z,84.50
2019-04-28T21:42:03.766Z,85.27
2019-04-28T21:44:57.992Z,86.30
2019-04-28T21:47:28.647Z,78.23
2019-04-28T21:49:56.322Z,72.93
2019-04-28T21:52:24.232Z,68.80
2019-04-28T21:54:59.505Z,49.80
2019-04-28T21:57:27.231Z,47.37
2019-04-28T21:59:57.816Z,37.03
2019-04-28T22:02:29.198Z,37.87
2019-04-28T22:04:56.837Z,36.20
2019-04-28T22:07:24.623Z,38.70
2019-04-28T22:09:52.386Z,38.83
2019-04-28T22:12:22.747Z,35.67
2019-04-28T22:14:50.522Z,35.30
2019-04-28T22:17:21.199Z,39.70
2019-04-28T22:19:48.877Z,36.63
2019-04-28T22:22:16.650Z,41.07
2019-04-28T22:24:51.461Z,42.80
2019-04-28T22:27:28.981Z,39.90
2019-04-28T22:29:57.275Z,37.40
2019-04-28T22:32:25.036Z,43.50
2019-04-28T22:34:52.664Z,41.77
2019-04-28T22:37:20.445Z,45.10
2019-04-28T22:39:48.688Z,41.57
2019-04-28T22:42:16.703Z,42.87
2019-04-28T22:44:47.650Z,43.43
2019-04-28T22:47:24.289Z,41.67
2019-04-28T22:49:52.513Z,43.07
2019-04-28T22:52:21.692Z,40.70
2019-04-28T22:55:09.067Z,38.60
2019-04-28T22:57:54.387Z,44.80
2019-04-28T23:00:41.135Z,44.77
2019-04-28T23:03:12.513Z,51.97
2019-04-28T23:05:40.649Z,54.27
2019-04-28T23:08:08.949Z,56.73
2019-04-28T23:10:36.790Z,59.80
2019-04-28T23:13:11.947Z,62.03
2019-04-28T23:15:39.786Z,62.47
2019-04-28T23:18:07.879Z,53.70
2019-04-28T23:20:37.885Z,55.00
2019-04-28T23:23:06.389Z,58.37
2019-04-28T23:25:34.351Z,52.77
2019-04-28T23:28:02.575Z,49.50
2019-04-28T23:30:43.094Z,51.43
2019-04-28T23:33:11.393Z,50.80
2019-04-28T23:35:39.600Z,51.93
2019-04-28T23:38:08.366Z,49.93
2019-04-28T23:40:40.944Z,52.23
2019-04-28T23:43:13.669Z,45.53
2019-04-28T23:45:42.595Z,54.67
2019-04-28T23:48:10.471Z,51.97
2019-04-28T23:50:57.762Z,51.87
2019-04-28T23:53:52.532Z,50.10
2019-04-28T23:56:20.809Z,51.80
2019-04-28T23:58:48.714Z,46.30
